Time,TemperatureF,DewpointF,PressureIn,WindDirection,WindDirectionDegrees,WindSpeedMPH,WindSpeedGustMPH,Humidity,HourlyPrecipIn,Conditions,Clouds,dailyrainin,SoftwareType,DateUTC
2013-02-26 00:01:00,75.0,70.0,29.85,South,175,8.0,11.0,85,-99.99,,,-99.99,,2013-02-26 05:01:00,
2013-02-26 00:12:00,74.0,70.0,29.86,South,177,7.0,12.0,86,-99.99,,,-99.99,,2013-02-26 05:12:00,
2013-02-26 00:22:00,74.0,70.0,29.86,South,177,7.0,12.0,86,-99.99,,,-99.99,,2013-02-26 05:22:00,
2013-02-26 00:32:00,74.0,70.0,29.85,South,176,7.0,11.0,86,-99.99,,,-99.99,,2013-02-26 05:32:00,
2013-02-26 00:43:00,74.0,70.0,29.85,South,174,7.0,13.0,86,-99.99,,,-99.99,,2013-02-26 05:43:00,
2013-02-26 00:52:00,74.0,70.0,29.84,South,172,9.0,15.0,85,-99.99,,,-99.99,,2013-02-26 05:52:00,
2013-02-26 01:02:00,74.0,70.0,29.84,South,172,9.0,15.0,85,-99.99,,,-99.99,,2013-02-26 06:02:00,
2013-02-26 01:11:00,74.0,70.0,29.83,South,174,9.0,14.0,85,-99.99,,,-99.99,,2013-02-26 06:11:00,
2013-02-26 01:22:00,74.0,70.0,29.83,South,174,9.0,14.0,85,-99.99,,,-99.99,,2013-02-26 06:22:00,
2013-02-26 01:32:00,74.0,70.0,29.83,South,174,9.0,14.0,85,-99.99,,,-99.99,,2013-02-26 06:32:00,
2013-02-26 01:42:00,75.0,70.0,29.83,South,170,9.0,16.0,85,-99.99,,,-99.99,,2013-02-26 06:42:00,
2013-02-26 01:52:00,75.0,70.0,29.83,SSE,167,9.0,15.0,85,-99.99,,,-99.99,,2013-02-26 06:52:00,
2013-02-26 02:01:00,75.0,70.0,29.83,SSE,167,9.0,15.0,85,-99.99,,,-99.99,,2013-02-26 07:01:00,
2013-02-26 02:11:00,74.0,70.0,29.82,SSE,167,9.0,17.0,86,-99.99,,,-99.99,,2013-02-26 07:11:00,
2013-02-26 02:22:00,74.0,70.0,29.82,SSE,167,9.0,17.0,86,-99.99,,,-99.99,,2013-02-26 07:22:00,
2013-02-26 02:32:00,74.0,70.0,29.81,SSE,165,10.0,15.0,86,-99.99,,,-99.99,,2013-02-26 07:32:00,
2013-02-26 02:42:00,74.0,70.0,29.81,SSE,167,11.0,17.0,88,-99.99,,,-99.99,,2013-02-26 07:42:00,
2013-02-26 02:52:00,74.0,70.0,29.81,South,172,11.0,20.0,87,-99.99,,,-99.99,,2013-02-26 07:52:00,
2013-02-26 03:02:00,74.0,70.0,29.81,South,172,11.0,20.0,87,-99.99,,,-99.99,,2013-02-26 08:02:00,
2013-02-26 03:11:00,74.0,70.0,29.81,South,171,12.0,17.0,88,-99.99,,,-99.99,,2013-02-26 08:11:00,
2013-02-26 03:21:00,74.0,70.0,29.81,South,171,12.0,17.0,88,-99.99,,,-99.99,,2013-02-26 08:21:00,
2013-02-26 03:32:00,74.0,70.0,29.80,South,173,10.0,16.0,88,-99.99,,,-99.99,,2013-02-26 08:32:00,
2013-02-26 03:42:00,74.0,70.0,29.80,South,172,10.0,18.0,87,-99.99,,,-99.99,,2013-02-26 08:42:00,
2013-02-26 03:52:00,75.0,71.0,29.81,South,175,10.0,18.0,86,-99.99,,,-99.99,,2013-02-26 08:52:00,
2013-02-26 04:02:00,75.0,71.0,29.81,South,175,10.0,18.0,86,-99.99,,,-99.99,,2013-02-26 09:02:00,
2013-02-26 04:11:00,75.0,71.0,29.81,South,180,11.0,19.0,85,-99.99,,,-99.99,,2013-02-26 09:11:00,
2013-02-26 04:21:00,75.0,71.0,29.81,South,180,11.0,19.0,85,-99.99,,,-99.99,,2013-02-26 09:21:00,
2013-02-26 04:32:00,75.0,71.0,29.81,South,180,11.0,19.0,85,-99.99,,,-99.99,,2013-02-26 09:32:00,
2013-02-26 04:43:00,75.0,70.0,29.81,South,181,9.0,19.0,84,-99.99,,,-99.99,,2013-02-26 09:43:00,
2013-02-26 04:52:00,75.0,70.0,29.81,South,182,8.0,18.0,83,-99.99,,,-99.99,,2013-02-26 09:52:00,
2013-02-26 05:01:00,75.0,70.0,29.81,South,182,8.0,18.0,83,-99.99,,,-99.99,,2013-02-26 10:01:00,
2013-02-26 05:11:00,75.0,70.0,29.81,South,183,7.0,16.0,83,-99.99,,,-99.99,,2013-02-26 10:11:00,
2013-02-26 05:21:00,75.0,70.0,29.81,South,183,7.0,16.0,83,-99.99,,,-99.99,,2013-02-26 10:21:00,
2013-02-26 05:32:00,75.0,69.0,29.81,South,183,7.0,16.0,81,-99.99,,,-99.99,,2013-02-26 10:32:00,
2013-02-26 05:42:00,75.0,69.0,29.81,South,180,9.0,16.0,81,-99.99,,,-99.99,,2013-02-26 10:42:00,
2013-02-26 05:52:00,75.0,69.0,29.81,South,179,8.0,19.0,82,-99.99,,,-99.99,,2013-02-26 10:52:00,
2013-02-26 06:01:00,75.0,69.0,29.81,South,179,8.0,19.0,82,-99.99,,,-99.99,,2013-02-26 11:01:00,
2013-02-26 06:12:00,75.0,69.0,29.81,South,182,9.0,16.0,83,-99.99,,,-99.99,,2013-02-26 11:12:00,
2013-02-26 06:22:00,75.0,69.0,29.81,South,182,9.0,16.0,83,-99.99,,,-99.99,,2013-02-26 11:22:00,
2013-02-26 06:32:00,75.0,69.0,29.81,South,182,9.0,16.0,83,-99.99,,,-99.99,,2013-02-26 11:32:00,
2013-02-26 06:42:00,75.0,70.0,29.82,South,182,7.0,15.0,84,-99.99,,,-99.99,,2013-02-26 11:42:00,
2013-02-26 06:53:00,75.0,70.0,29.82,South,182,7.0,15.0,84,-99.99,,,-99.99,,2013-02-26 11:53:00,
2013-02-26 07:02:00,75.0,70.0,29.82,South,182,7.0,15.0,84,-99.99,,,-99.99,,2013-02-26 12:02:00,
2013-02-26 07:11:00,74.0,69.0,29.83,South,179,7.0,15.0,83,-99.99,,,-99.99,,2013-02-26 12:11:00,
2013-02-26 07:22:00,74.0,69.0,29.83,South,179,7.0,15.0,83,-99.99,,,-99.99,,2013-02-26 12:22:00,
2013-02-26 07:32:00,74.0,69.0,29.83,South,179,7.0,15.0,83,-99.99,,,-99.99,,2013-02-26 12:32:00,
2013-02-26 07:42:00,75.0,69.0,29.84,South,180,8.0,14.0,83,-99.99,,,-99.99,,2013-02-26 12:42:00,
2013-02-26 07:53:00,75.0,69.0,29.85,South,180,5.0,10.0,82,-99.99,,,-99.99,,2013-02-26 12:53:00,
2013-02-26 08:02:00,75.0,69.0,29.85,South,180,5.0,10.0,82,-99.99,,,-99.99,,2013-02-26 13:02:00,
2013-02-26 08:11:00,75.0,69.0,29.85,South,178,8.0,15.0,81,-99.99,,,-99.99,,2013-02-26 13:11:00,
2013-02-26 08:22:00,75.0,69.0,29.85,South,178,8.0,15.0,81,-99.99,,,-99.99,,2013-02-26 13:22:00,
2013-02-26 08:32:00,75.0,69.0,29.86,South,177,8.0,14.0,81,-99.99,,,-99.99,,2013-02-26 13:32:00,
2013-02-26 08:42:00,76.0,70.0,29.86,South,184,7.0,13.0,81,-99.99,,,-99.99,,2013-02-26 13:42:00,
2013-02-26 08:52:00,76.0,70.0,29.86,South,179,10.0,19.0,81,-99.99,,,-99.99,,2013-02-26 13:52:00,
2013-02-26 09:02:00,76.0,70.0,29.86,South,179,10.0,19.0,81,-99.99,,,-99.99,,2013-02-26 14:02:00,
2013-02-26 09:11:00,77.0,71.0,29.86,South,179,7.0,15.0,80,-99.99,,,-99.99,,2013-02-26 14:11:00,
2013-02-26 09:22:00,77.0,71.0,29.86,South,179,7.0,15.0,80,-99.99,,,-99.99,,2013-02-26 14:22:00,
2013-02-26 09:32:00,77.0,71.0,29.86,South,179,7.0,15.0,80,-99.99,,,-99.99,,2013-02-26 14:32:00,
2013-02-26 09:42:00,78.0,70.0,29.87,SSW,192,4.0,15.0,75,-99.99,,,-99.99,,2013-02-26 14:42:00,
2013-02-26 09:52:00,79.0,69.0,29.88,South,183,8.0,17.0,70,-99.99,,,-99.99,,2013-02-26 14:52:00,
2013-02-26 10:02:00,79.0,69.0,29.88,South,183,8.0,17.0,70,-99.99,,,-99.99,,2013-02-26 15:02:00,
2013-02-26 10:11:00,80.0,69.0,29.88,South,186,6.0,18.0,68,-99.99,,,-99.99,,2013-02-26 15:11:00,
2013-02-26 10:22:00,81.0,68.0,29.88,South,186,6.0,17.0,64,-99.99,,,-99.99,,2013-02-26 15:22:00,
2013-02-26 10:32:00,81.0,68.0,29.88,South,186,6.0,17.0,64,-99.99,,,-99.99,,2013-02-26 15:32:00,
2013-02-26 10:42:00,82.0,67.0,29.88,South,189,9.0,18.0,60,-99.99,,,-99.99,,2013-02-26 15:42:00,
2013-02-26 10:52:00,81.0,69.0,29.87,South,171,12.0,21.0,66,-99.99,,,-99.99,,2013-02-26 15:52:00,
2013-02-26 11:02:00,81.0,69.0,29.87,South,171,12.0,21.0,66,-99.99,,,-99.99,,2013-02-26 16:02:00,
2013-02-26 11:11:00,80.0,70.0,29.87,South,177,15.0,26.0,70,-99.99,,,-99.99,,2013-02-26 16:11:00,
2013-02-26 11:22:00,80.0,70.0,29.87,South,177,15.0,26.0,70,-99.99,,,-99.99,,2013-02-26 16:22:00,
2013-02-26 11:32:00,80.0,70.0,29.87,South,177,15.0,26.0,70,-99.99,,,-99.99,,2013-02-26 16:32:00,
2013-02-26 11:42:00,79.0,70.0,29.87,South,173,15.0,26.0,73,-99.99,,,-99.99,,2013-02-26 16:42:00,
2013-02-26 11:52:00,79.0,71.0,29.87,South,172,15.0,23.0,73,-99.99,,,-99.99,,2013-02-26 16:52:00,
2013-02-26 12:01:00,79.0,71.0,29.87,South,172,15.0,23.0,73,-99.99,,,-99.99,,2013-02-26 17:01:00,
2013-02-26 12:11:00,79.0,70.0,29.88,South,174,15.0,22.0,73,-99.99,,,-99.99,,2013-02-26 17:11:00,
2013-02-26 12:22:00,79.0,70.0,29.88,South,174,15.0,22.0,73,-99.99,,,-99.99,,2013-02-26 17:22:00,
2013-02-26 12:32:00,79.0,70.0,29.88,South,174,15.0,22.0,73,-99.99,,,-99.99,,2013-02-26 17:32:00,
2013-02-26 12:42:00,78.0,70.0,29.87,South,172,14.0,20.0,75,-99.99,,,-99.99,,2013-02-26 17:42:00,
2013-02-26 12:52:00,78.0,71.0,29.87,South,171,12.0,19.0,77,-99.99,,,-99.99,,2013-02-26 17:52:00,
2013-02-26 13:02:00,78.0,71.0,29.87,South,171,12.0,19.0,77,-99.99,,,-99.99,,2013-02-26 18:02:00,
2013-02-26 13:12:00,80.0,71.0,29.86,South,171,13.0,22.0,74,-99.99,,,-99.99,,2013-02-26 18:12:00,
2013-02-26 13:21:00,80.0,71.0,29.86,South,171,13.0,22.0,74,-99.99,,,-99.99,,2013-02-26 18:21:00,
2013-02-26 13:32:00,81.0,71.0,29.85,South,180,12.0,22.0,69,-99.99,,,-99.99,,2013-02-26 18:32:00,
2013-02-26 13:42:00,81.0,71.0,29.85,South,177,11.0,21.0,71,-99.99,,,-99.99,,2013-02-26 18:42:00,
2013-02-26 13:53:00,81.0,71.0,29.84,South,180,8.0,23.0,71,-99.99,,,-99.99,,2013-02-26 18:53:00,
2013-02-26 14:01:00,81.0,71.0,29.84,South,180,8.0,23.0,71,-99.99,,,-99.99,,2013-02-26 19:01:00,
2013-02-26 14:11:00,80.0,71.0,29.83,South,173,12.0,20.0,72,-99.99,,,-99.99,,2013-02-26 19:11:00,
2013-02-26 14:22:00,80.0,71.0,29.83,South,173,12.0,20.0,72,-99.99,,,-99.99,,2013-02-26 19:22:00,
2013-02-26 14:32:00,80.0,71.0,29.83,South,173,12.0,20.0,72,-99.99,,,-99.99,,2013-02-26 19:32:00,
2013-02-26 14:42:00,80.0,71.0,29.81,South,172,15.0,29.0,71,-99.99,,,-99.99,,2013-02-26 19:42:00,
2013-02-26 14:52:00,81.0,70.0,29.80,South,171,15.0,25.0,69,-99.99,,,-99.99,,2013-02-26 19:52:00,
2013-02-26 15:01:00,81.0,70.0,29.80,South,171,15.0,25.0,69,-99.99,,,-99.99,,2013-02-26 20:01:00,
2013-02-26 15:11:00,80.0,70.0,29.80,South,174,15.0,25.0,71,-99.99,,,-99.99,,2013-02-26 20:11:00,
2013-02-26 15:22:00,80.0,70.0,29.80,South,174,15.0,25.0,71,-99.99,,,-99.99,,2013-02-26 20:22:00,
2013-02-26 15:32:00,80.0,70.0,29.80,South,174,15.0,25.0,71,-99.99,,,-99.99,,2013-02-26 20:32:00,
2013-02-26 15:41:00,79.0,71.0,29.80,South,176,14.0,24.0,74,-99.99,,,-99.99,,2013-02-26 20:41:00,
2013-02-26 15:52:00,80.0,71.0,29.79,South,174,12.0,21.0,74,-99.99,,,-99.99,,2013-02-26 20:52:00,
2013-02-26 16:01:00,80.0,71.0,29.79,South,174,12.0,21.0,74,-99.99,,,-99.99,,2013-02-26 21:01:00,
2013-02-26 16:11:00,80.0,71.0,29.80,South,173,10.0,18.0,74,-99.99,,,-99.99,,2013-02-26 21:11:00,
2013-02-26 16:21:00,80.0,71.0,29.80,South,173,10.0,18.0,74,-99.99,,,-99.99,,2013-02-26 21:21:00,
2013-02-26 16:31:00,80.0,71.0,29.80,South,173,10.0,18.0,74,-99.99,,,-99.99,,2013-02-26 21:31:00,
2013-02-26 16:41:00,80.0,69.0,29.81,SSW,196,3.0,14.0,67,-99.99,,,-99.99,,2013-02-26 21:41:00,
2013-02-26 16:51:00,81.0,68.0,29.81,South,190,4.0,13.0,63,-99.99,,,-99.99,,2013-02-26 21:51:00,
2013-02-26 17:01:00,81.0,68.0,29.81,South,190,4.0,13.0,63,-99.99,,,-99.99,,2013-02-26 22:01:00,
2013-02-26 17:11:00,80.0,70.0,29.82,SSW,205,5.0,25.0,70,-99.99,,,-99.99,,2013-02-26 22:11:00,
2013-02-26 17:21:00,80.0,70.0,29.82,SSW,205,5.0,25.0,70,-99.99,,,-99.99,,2013-02-26 22:21:00,
2013-02-26 17:32:00,78.0,70.0,29.82,SSW,200,3.0,7.0,75,-99.99,,,-99.99,,2013-02-26 22:32:00,
2013-02-26 17:42:00,78.0,69.0,29.82,SSW,193,2.0,6.0,73,-99.99,,,-99.99,,2013-02-26 22:42:00,
2013-02-26 17:52:00,79.0,69.0,29.82,SSW,197,3.0,13.0,70,-99.99,,,-99.99,,2013-02-26 22:52:00,
2013-02-26 18:01:00,79.0,69.0,29.82,SSW,197,3.0,13.0,70,-99.99,,,-99.99,,2013-02-26 23:01:00,
2013-02-26 18:11:00,80.0,69.0,29.82,SSW,202,4.0,11.0,69,-99.99,,,-99.99,,2013-02-26 23:11:00,
2013-02-26 18:21:00,80.0,69.0,29.82,SSW,202,4.0,11.0,69,-99.99,,,-99.99,,2013-02-26 23:21:00,
2013-02-26 18:32:00,80.0,69.0,29.82,SSW,202,4.0,11.0,69,-99.99,,,-99.99,,2013-02-26 23:32:00,
2013-02-26 18:42:00,79.0,69.0,29.83,SSW,209,4.0,16.0,70,-99.99,,,-99.99,,2013-02-26 23:42:00,
2013-02-26 18:52:00,79.0,69.0,29.84,SSW,206,4.0,14.0,72,-99.99,,,-99.99,,2013-02-26 23:52:00,
2013-02-26 19:02:00,79.0,69.0,29.84,SSW,206,4.0,14.0,72,-99.99,,,-99.99,,2013-02-27 00:02:00,
2013-02-26 19:11:00,79.0,69.0,29.84,SW,218,5.0,11.0,71,-99.99,,,-99.99,,2013-02-27 00:11:00,
2013-02-26 19:22:00,79.0,69.0,29.84,SW,218,5.0,11.0,71,-99.99,,,-99.99,,2013-02-27 00:22:00,
2013-02-26 19:32:00,78.0,69.0,29.85,SW,223,5.0,15.0,71,-99.99,,,-99.99,,2013-02-27 00:32:00,
2013-02-26 19:42:00,78.0,69.0,29.85,SW,223,5.0,15.0,71,-99.99,,,-99.99,,2013-02-27 00:42:00,
2013-02-26 19:52:00,78.0,68.0,29.85,SW,218,4.0,11.0,72,-99.99,,,-99.99,,2013-02-27 00:52:00,
2013-02-26 20:01:00,78.0,68.0,29.85,SW,218,4.0,11.0,72,-99.99,,,-99.99,,2013-02-27 01:01:00,
2013-02-26 20:11:00,77.0,68.0,29.86,SSW,200,3.0,11.0,73,-99.99,,,-99.99,,2013-02-27 01:11:00,
2013-02-26 20:22:00,77.0,68.0,29.86,SSW,200,3.0,11.0,73,-99.99,,,-99.99,,2013-02-27 01:22:00,
2013-02-26 20:30:00,76.0,68.0,29.87,SSW,207,3.0,9.0,75,-99.99,,,-99.99,,2013-02-27 01:30:00,
2013-02-26 20:32:00,77.0,68.0,29.86,SSW,197,3.0,11.0,74,-99.99,,,-99.99,,2013-02-27 01:32:00,
2013-02-26 20:42:00,77.0,68.0,29.87,SSW,198,3.0,10.0,75,-99.99,,,-99.99,,2013-02-27 01:42:00,
2013-02-26 20:52:00,76.0,68.0,29.87,SSW,207,3.0,9.0,75,-99.99,,,-99.99,,2013-02-27 01:52:00,
2013-02-26 21:02:00,76.0,68.0,29.87,SSW,207,3.0,9.0,75,-99.99,,,-99.99,,2013-02-27 02:02:00,
2013-02-26 21:16:00,76.0,68.0,29.87,SSW,207,3.0,9.0,75,-99.99,,,-99.99,,2013-02-27 02:16:00,
2013-02-26 21:24:00,76.0,68.0,29.87,SSW,207,3.0,9.0,75,-99.99,,,-99.99,,2013-02-27 02:24:00,
2013-02-26 21:42:00,76.0,69.0,29.88,South,188,1.0,3.0,79,-99.99,,,-99.99,,2013-02-27 02:42:00,
2013-02-26 21:52:00,76.0,69.0,29.88,South,188,1.0,3.0,79,-99.99,,,-99.99,,2013-02-27 02:52:00,
2013-02-26 22:02:00,75.0,69.0,29.88,SSW,200,1.0,7.0,81,-99.99,,,-99.99,,2013-02-27 03:02:00,
2013-02-26 22:11:00,75.0,69.0,29.88,SSW,200,1.0,7.0,81,-99.99,,,-99.99,,2013-02-27 03:11:00,
2013-02-26 22:22:00,75.0,69.0,29.88,SSW,200,1.0,7.0,81,-99.99,,,-99.99,,2013-02-27 03:22:00,
2013-02-26 22:32:00,75.0,69.0,29.89,SSE,166,1.0,3.0,81,-99.99,,,-99.99,,2013-02-27 03:32:00,
2013-02-26 22:42:00,75.0,69.0,29.89,SSW,196,1.0,4.0,81,-99.99,,,-99.99,,2013-02-27 03:42:00,
2013-02-26 22:52:00,75.0,69.0,29.89,SSW,193,1.0,3.0,81,-99.99,,,-99.99,,2013-02-27 03:52:00,
2013-02-26 23:02:00,75.0,69.0,29.89,SSW,193,1.0,3.0,81,-99.99,,,-99.99,,2013-02-27 04:02:00,
2013-02-26 23:12:00,75.0,69.0,29.89,South,187,1.0,4.0,81,-99.99,,,-99.99,,2013-02-27 04:12:00,
2013-02-26 23:22:00,75.0,69.0,29.89,South,187,1.0,4.0,81,-99.99,,,-99.99,,2013-02-27 04:22:00,
2013-02-26 23:32:00,75.0,69.0,29.89,South,187,1.0,4.0,81,-99.99,,,-99.99,,2013-02-27 04:32:00,
2013-02-26 23:42:00,75.0,69.0,29.89,South,187,1.0,4.0,81,-99.99,,,-99.99,,2013-02-27 04:42:00,
2013-02-26 23:52:00,74.0,70.0,29.88,SSW,192,2.0,5.0,84,-99.99,,,-99.99,,2013-02-27 04:52:00,